sensor_id;sensor_type;location;lat;lon;timestamp;temperature;humidity
21255;DHT22;10785;50.674;17.954;2022-11-11T00:00:01;6.50;99.90
21255;DHT22;10785;50.674;17.954;2022-11-11T00:02:50;6.50;99.90
21255;DHT22;10785;50.674;17.954;2022-11-11T00:05:37;6.40;99.90
21255;DHT22;10785;50.674;17.954;2022-11-11T00:08:24;6.40;99.90
21255;DHT22;10785;50.674;17.954;2022-11-11T00:11:12;6.40;99.90
21255;DHT22;10785;50.674;17.954;2022-11-11T00:13:59;6.30;99.90
21255;DHT22;10785;50.674;17.954;2022-11-11T00:16:46;6.30;99.90
21255;DHT22;10785;50.674;17.954;2022-11-11T00:19:51;6.20;99.90
21255;DHT22;10785;50.674;17.954;2022-11-11T00:22:56;6.20;99.90
21255;DHT22;10785;50.674;17.954;2022-11-11T00:26:01;6.10;99.90
21255;DHT22;10785;50.674;17.954;2022-11-11T00:29:10;6.00;99.90
21255;DHT22;10785;50.674;17.954;2022-11-11T00:31:57;6.00;99.90
21255;DHT22;10785;50.674;17.954;2022-11-11T00:35:03;5.90;99.90
21255;DHT22;10785;50.674;17.954;2022-11-11T00:38:10;5.90;99.90
21255;DHT22;10785;50.674;17.954;2022-11-11T00:41:19;5.80;99.90
21255;DHT22;10785;50.674;17.954;2022-11-11T00:44:07;5.80;99.90
21255;DHT22;10785;50.674;17.954;2022-11-11T00:46:54;5.80;99.90
21255;DHT22;10785;50.674;17.954;2022-11-11T00:49:59;5.80;99.90
21255;DHT22;10785;50.674;17.954;2022-11-11T00:53:09;5.80;99.90
21255;DHT22;10785;50.674;17.954;2022-11-11T00:55:57;5.70;99.90
21255;DHT22;10785;50.674;17.954;2022-11-11T00:58:44;5.70;99.90
21255;DHT22;10785;50.674;17.954;2022-11-11T01:01:32;5.70;99.90
21255;DHT22;10785;50.674;17.954;2022-11-11T01:04:19;5.70;99.90
21255;DHT22;10785;50.674;17.954;2022-11-11T01:07:06;5.70;99.90
21255;DHT22;10785;50.674;17.954;2022-11-11T01:09:55;5.60;99.90
21255;DHT22;10785;50.674;17.954;2022-11-11T01:12:42;5.80;99.90
21255;DHT22;10785;50.674;17.954;2022-11-11T01:15:32;5.70;99.90
21255;DHT22;10785;50.674;17.954;2022-11-11T01:18:21;5.80;99.90
21255;DHT22;10785;50.674;17.954;2022-11-11T01:21:11;5.60;99.90
21255;DHT22;10785;50.674;17.954;2022-11-11T01:24:00;5.60;99.90
21255;DHT22;10785;50.674;17.954;2022-11-11T01:26:48;5.60;99.90
21255;DHT22;10785;50.674;17.954;2022-11-11T01:29:35;5.60;99.90
21255;DHT22;10785;50.674;17.954;2022-11-11T01:32:23;5.50;99.90
21255;DHT22;10785;50.674;17.954;2022-11-11T01:35:10;5.50;99.90
21255;DHT22;10785;50.674;17.954;2022-11-11T01:37:57;5.60;99.90
21255;DHT22;10785;50.674;17.954;2022-11-11T01:40:46;5.50;99.90
21255;DHT22;10785;50.674;17.954;2022-11-11T01:43:35;5.40;99.90
21255;DHT22;10785;50.674;17.954;2022-11-11T01:46:29;5.40;99.90
21255;DHT22;10785;50.674;17.954;2022-11-11T01:49:24;5.40;99.90
21255;DHT22;10785;50.674;17.954;2022-11-11T01:52:15;5.40;99.90
21255;DHT22;10785;50.674;17.954;2022-11-11T01:55:08;5.50;99.90
21255;DHT22;10785;50.674;17.954;2022-11-11T01:57:57;5.40;99.90
21255;DHT22;10785;50.674;17.954;2022-11-11T02:00:47;5.40;99.90
21255;DHT22;10785;50.674;17.954;2022-11-11T02:03:37;5.40;99.90
21255;DHT22;10785;50.674;17.954;2022-11-11T02:06:27;5.30;99.90
21255;DHT22;10785;50.674;17.954;2022-11-11T02:09:13;5.30;99.90
21255;DHT22;10785;50.674;17.954;2022-11-11T02:12:04;5.40;99.90
21255;DHT22;10785;50.674;17.954;2022-11-11T02:15:30;5.30;99.90
21255;DHT22;10785;50.674;17.954;2022-11-11T02:18:18;5.30;99.90
21255;DHT22;10785;50.674;17.954;2022-11-11T02:21:06;5.20;99.90
21255;DHT22;10785;50.674;17.954;2022-11-11T02:24:01;5.20;99.90
21255;DHT22;10785;50.674;17.954;2022-11-11T02:26:50;5.20;99.90
21255;DHT22;10785;50.674;17.954;2022-11-11T02:29:46;5.20;99.90
21255;DHT22;10785;50.674;17.954;2022-11-11T02:32:33;5.20;99.90
21255;DHT22;10785;50.674;17.954;2022-11-11T02:35:23;5.10;99.90
21255;DHT22;10785;50.674;17.954;2022-11-11T02:38:11;5.20;99.90
21255;DHT22;10785;50.674;17.954;2022-11-11T02:41:00;5.10;99.90
21255;DHT22;10785;50.674;17.954;2022-11-11T02:44:05;5.10;99.90
21255;DHT22;10785;50.674;17.954;2022-11-11T02:46:52;5.10;99.90
21255;DHT22;10785;50.674;17.954;2022-11-11T02:49:40;5.10;99.90
21255;DHT22;10785;50.674;17.954;2022-11-11T02:52:28;5.00;99.90
21255;DHT22;10785;50.674;17.954;2022-11-11T02:55:15;5.00;99.90
21255;DHT22;10785;50.674;17.954;2022-11-11T02:58:03;5.00;99.90
21255;DHT22;10785;50.674;17.954;2022-11-11T03:00:51;5.00;99.90
21255;DHT22;10785;50.674;17.954;2022-11-11T03:03:38;5.00;99.90
21255;DHT22;10785;50.674;17.954;2022-11-11T03:06:26;5.00;99.90
21255;DHT22;10785;50.674;17.954;2022-11-11T03:09:13;5.00;99.90
21255;DHT22;10785;50.674;17.954;2022-11-11T03:12:01;5.10;99.90
21255;DHT22;10785;50.674;17.954;2022-11-11T03:14:49;5.10;99.90
21255;DHT22;10785;50.674;17.954;2022-11-11T03:17:37;5.10;99.90
21255;DHT22;10785;50.674;17.954;2022-11-11T03:20:26;5.00;99.90
21255;DHT22;10785;50.674;17.954;2022-11-11T03:23:30;5.10;99.90
21255;DHT22;10785;50.674;17.954;2022-11-11T03:26:17;5.10;99.90
21255;DHT22;10785;50.674;17.954;2022-11-11T03:29:05;5.10;99.90
21255;DHT22;10785;50.674;17.954;2022-11-11T03:31:54;5.10;99.90
21255;DHT22;10785;50.674;17.954;2022-11-11T03:34:41;5.10;99.90
21255;DHT22;10785;50.674;17.954;2022-11-11T03:37:29;5.00;99.90
21255;DHT22;10785;50.674;17.954;2022-11-11T03:40:34;5.00;99.90
21255;DHT22;10785;50.674;17.954;2022-11-11T03:43:22;4.90;99.90
21255;DHT22;10785;50.674;17.954;2022-11-11T03:46:09;4.90;99.90
21255;DHT22;10785;50.674;17.954;2022-11-11T03:48:58;4.90;99.90
21255;DHT22;10785;50.674;17.954;2022-11-11T03:51:45;4.90;99.90
21255;DHT22;10785;50.674;17.954;2022-11-11T03:54:32;4.90;99.90
21255;DHT22;10785;50.674;17.954;2022-11-11T03:57:19;4.90;99.90
21255;DHT22;10785;50.674;17.954;2022-11-11T04:00:20;4.90;99.90
21255;DHT22;10785;50.674;17.954;2022-11-11T04:03:10;5.00;99.90
21255;DHT22;10785;50.674;17.954;2022-11-11T04:06:16;5.00;99.90
21255;DHT22;10785;50.674;17.954;2022-11-11T04:09:20;5.00;99.90
21255;DHT22;10785;50.674;17.954;2022-11-11T04:12:25;5.00;99.90
21255;DHT22;10785;50.674;17.954;2022-11-11T04:15:14;5.00;99.90
21255;DHT22;10785;50.674;17.954;2022-11-11T04:18:19;5.00;99.90
21255;DHT22;10785;50.674;17.954;2022-11-11T04:21:28;5.00;99.90
21255;DHT22;10785;50.674;17.954;2022-11-11T04:24:30;5.00;99.90
21255;DHT22;10785;50.674;17.954;2022-11-11T04:27:34;5.00;99.90
21255;DHT22;10785;50.674;17.954;2022-11-11T04:30:21;5.10;99.90
21255;DHT22;10785;50.674;17.954;2022-11-11T04:33:08;5.10;99.90
21255;DHT22;10785;50.674;17.954;2022-11-11T04:35:55;5.10;99.90
21255;DHT22;10785;50.674;17.954;2022-11-11T04:38:43;5.20;99.90
21255;DHT22;10785;50.674;17.954;2022-11-11T04:41:48;5.20;99.90
21255;DHT22;10785;50.674;17.954;2022-11-11T04:44:56;5.20;99.90
21255;DHT22;10785;50.674;17.954;2022-11-11T04:48:03;5.30;99.90
21255;DHT22;10785;50.674;17.954;2022-11-11T04:50:50;5.20;99.90
21255;DHT22;10785;50.674;17.954;2022-11-11T04:53:37;5.20;99.90
21255;DHT22;10785;50.674;17.954;2022-11-11T04:56:26;5.20;99.90
21255;DHT22;10785;50.674;17.954;2022-11-11T04:59:35;5.30;99.90
21255;DHT22;10785;50.674;17.954;2022-11-11T05:02:22;5.20;99.90
21255;DHT22;10785;50.674;17.954;2022-11-11T05:05:28;5.20;99.90
21255;DHT22;10785;50.674;17.954;2022-11-11T05:08:38;5.20;99.90
21255;DHT22;10785;50.674;17.954;2022-11-11T05:11:43;5.20;99.90
21255;DHT22;10785;50.674;17.954;2022-11-11T05:14:30;5.20;99.90
21255;DHT22;10785;50.674;17.954;2022-11-11T05:17:34;5.20;99.90
21255;DHT22;10785;50.674;17.954;2022-11-11T05:20:39;5.20;99.90
21255;DHT22;10785;50.674;17.954;2022-11-11T05:23:43;5.20;99.90
21255;DHT22;10785;50.674;17.954;2022-11-11T05:26:49;5.20;99.90
21255;DHT22;10785;50.674;17.954;2022-11-11T05:29:36;5.20;99.90
21255;DHT22;10785;50.674;17.954;2022-11-11T05:32:24;5.10;99.90
21255;DHT22;10785;50.674;17.954;2022-11-11T05:35:11;5.10;99.90
21255;DHT22;10785;50.674;17.954;2022-11-11T05:38:01;5.10;99.90
21255;DHT22;10785;50.674;17.954;2022-11-11T05:41:06;5.20;99.90
21255;DHT22;10785;50.674;17.954;2022-11-11T05:43:55;5.20;99.90
21255;DHT22;10785;50.674;17.954;2022-11-11T05:46:42;5.30;99.90
21255;DHT22;10785;50.674;17.954;2022-11-11T05:49:30;5.30;99.90
21255;DHT22;10785;50.674;17.954;2022-11-11T05:52:17;5.30;99.90
21255;DHT22;10785;50.674;17.954;2022-11-11T05:55:05;5.30;99.90
21255;DHT22;10785;50.674;17.954;2022-11-11T05:57:53;5.30;99.90
21255;DHT22;10785;50.674;17.954;2022-11-11T06:00:41;5.30;99.90
21255;DHT22;10785;50.674;17.954;2022-11-11T06:03:28;5.30;99.90
21255;DHT22;10785;50.674;17.954;2022-11-11T06:06:15;5.30;99.90
21255;DHT22;10785;50.674;17.954;2022-11-11T06:09:03;5.30;99.90
21255;DHT22;10785;50.674;17.954;2022-11-11T06:11:50;5.30;99.90
21255;DHT22;10785;50.674;17.954;2022-11-11T06:14:37;5.40;99.90
21255;DHT22;10785;50.674;17.954;2022-11-11T06:17:26;5.40;99.90
21255;DHT22;10785;50.674;17.954;2022-11-11T06:20:13;5.40;99.90
21255;DHT22;10785;50.674;17.954;2022-11-11T06:23:00;5.50;99.90
21255;DHT22;10785;50.674;17.954;2022-11-11T06:25:48;5.50;99.90
21255;DHT22;10785;50.674;17.954;2022-11-11T06:28:54;5.60;99.90
21255;DHT22;10785;50.674;17.954;2022-11-11T06:31:42;5.60;99.90
21255;DHT22;10785;50.674;17.954;2022-11-11T06:34:31;5.70;99.90
21255;DHT22;10785;50.674;17.954;2022-11-11T06:37:18;5.70;99.90
21255;DHT22;10785;50.674;17.954;2022-11-11T06:40:06;5.70;99.90
21255;DHT22;10785;50.674;17.954;2022-11-11T06:42:53;5.80;99.90
21255;DHT22;10785;50.674;17.954;2022-11-11T06:45:40;5.80;99.90
21255;DHT22;10785;50.674;17.954;2022-11-11T06:48:28;5.90;99.90
21255;DHT22;10785;50.674;17.954;2022-11-11T06:51:16;6.00;99.90
21255;DHT22;10785;50.674;17.954;2022-11-11T06:54:04;6.00;99.90
21255;DHT22;10785;50.674;17.954;2022-11-11T06:56:51;6.10;99.90
21255;DHT22;10785;50.674;17.954;2022-11-11T06:59:38;6.20;99.90
21255;DHT22;10785;50.674;17.954;2022-11-11T07:02:25;6.30;99.90
21255;DHT22;10785;50.674;17.954;2022-11-11T07:05:12;6.30;99.90
21255;DHT22;10785;50.674;17.954;2022-11-11T07:08:02;6.40;99.90
21255;DHT22;10785;50.674;17.954;2022-11-11T07:10:49;6.60;99.90
21255;DHT22;10785;50.674;17.954;2022-11-11T07:13:36;6.70;99.90
21255;DHT22;10785;50.674;17.954;2022-11-11T07:16:23;6.80;99.90
21255;DHT22;10785;50.674;17.954;2022-11-11T07:19:10;6.80;99.90
21255;DHT22;10785;50.674;17.954;2022-11-11T07:21:58;6.90;99.90
21255;DHT22;10785;50.674;17.954;2022-11-11T07:24:46;6.90;99.90
21255;DHT22;10785;50.674;17.954;2022-11-11T07:27:36;6.80;99.90
21255;DHT22;10785;50.674;17.954;2022-11-11T07:30:24;6.80;99.90
21255;DHT22;10785;50.674;17.954;2022-11-11T07:33:11;6.90;99.90
21255;DHT22;10785;50.674;17.954;2022-11-11T07:35:58;7.00;99.90
21255;DHT22;10785;50.674;17.954;2022-11-11T07:38:46;7.10;99.90
21255;DHT22;10785;50.674;17.954;2022-11-11T07:41:34;7.20;99.90
21255;DHT22;10785;50.674;17.954;2022-11-11T07:44:21;7.30;99.90
21255;DHT22;10785;50.674;17.954;2022-11-11T07:47:09;7.30;99.90
21255;DHT22;10785;50.674;17.954;2022-11-11T07:49:56;7.40;99.90
21255;DHT22;10785;50.674;17.954;2022-11-11T07:52:51;7.40;99.90
21255;DHT22;10785;50.674;17.954;2022-11-11T07:55:38;7.50;99.90
21255;DHT22;10785;50.674;17.954;2022-11-11T07:58:27;7.50;99.90
21255;DHT22;10785;50.674;17.954;2022-11-11T08:01:14;7.50;99.90
21255;DHT22;10785;50.674;17.954;2022-11-11T08:04:01;7.60;99.90
21255;DHT22;10785;50.674;17.954;2022-11-11T08:06:48;7.70;99.90
21255;DHT22;10785;50.674;17.954;2022-11-11T08:09:35;7.70;99.90
21255;DHT22;10785;50.674;17.954;2022-11-11T08:12:22;7.70;99.90
21255;DHT22;10785;50.674;17.954;2022-11-11T08:15:28;7.80;99.90
21255;DHT22;10785;50.674;17.954;2022-11-11T08:18:15;7.90;99.90
21255;DHT22;10785;50.674;17.954;2022-11-11T08:21:03;7.90;99.90
21255;DHT22;10785;50.674;17.954;2022-11-11T08:23:51;8.00;99.90
21255;DHT22;10785;50.674;17.954;2022-11-11T08:26:58;8.10;99.90
21255;DHT22;10785;50.674;17.954;2022-11-11T08:29:45;8.10;99.20
21255;DHT22;10785;50.674;17.954;2022-11-11T08:32:33;8.20;99.90
21255;DHT22;10785;50.674;17.954;2022-11-11T08:35:20;8.40;99.90
21255;DHT22;10785;50.674;17.954;2022-11-11T08:38:08;8.50;98.60
21255;DHT22;10785;50.674;17.954;2022-11-11T08:40:59;8.60;99.00
21255;DHT22;10785;50.674;17.954;2022-11-11T08:43:46;8.70;98.00
21255;DHT22;10785;50.674;17.954;2022-11-11T08:46:33;8.90;98.50
21255;DHT22;10785;50.674;17.954;2022-11-11T08:49:24;8.90;97.50
21255;DHT22;10785;50.674;17.954;2022-11-11T08:52:11;9.00;97.40
21255;DHT22;10785;50.674;17.954;2022-11-11T08:54:59;9.00;97.20
21255;DHT22;10785;50.674;17.954;2022-11-11T08:57:45;9.00;96.70
21255;DHT22;10785;50.674;17.954;2022-11-11T09:00:33;9.00;97.90
21255;DHT22;10785;50.674;17.954;2022-11-11T09:03:20;9.10;96.80
21255;DHT22;10785;50.674;17.954;2022-11-11T09:06:09;9.10;97.60
21255;DHT22;10785;50.674;17.954;2022-11-11T09:08:56;9.30;95.60
21255;DHT22;10785;50.674;17.954;2022-11-11T09:11:43;9.40;96.10
21255;DHT22;10785;50.674;17.954;2022-11-11T09:14:30;9.70;95.00
21255;DHT22;10785;50.674;17.954;2022-11-11T09:17:17;9.80;94.70
21255;DHT22;10785;50.674;17.954;2022-11-11T09:20:05;10.10;94.50
21255;DHT22;10785;50.674;17.954;2022-11-11T09:22:54;10.20;94.10
21255;DHT22;10785;50.674;17.954;2022-11-11T09:25:41;10.50;97.20
21255;DHT22;10785;50.674;17.954;2022-11-11T09:28:29;10.60;96.10
21255;DHT22;10785;50.674;17.954;2022-11-11T09:31:18;10.60;96.60
21255;DHT22;10785;50.674;17.954;2022-11-11T09:34:25;10.70;99.60
21255;DHT22;10785;50.674;17.954;2022-11-11T09:37:12;10.70;99.90
21255;DHT22;10785;50.674;17.954;2022-11-11T09:40:01;10.80;99.70
21255;DHT22;10785;50.674;17.954;2022-11-11T09:42:58;10.80;97.70
21255;DHT22;10785;50.674;17.954;2022-11-11T09:45:57;10.80;97.90
21255;DHT22;10785;50.674;17.954;2022-11-11T09:48:56;10.70;98.20
21255;DHT22;10785;50.674;17.954;2022-11-11T09:51:53;10.70;98.40
21255;DHT22;10785;50.674;17.954;2022-11-11T09:54:47;10.80;98.20
21255;DHT22;10785;50.674;17.954;2022-11-11T09:57:39;10.90;97.90
21255;DHT22;10785;50.674;17.954;2022-11-11T10:00:30;10.90;99.10
21255;DHT22;10785;50.674;17.954;2022-11-11T10:03:21;11.00;99.90
21255;DHT22;10785;50.674;17.954;2022-11-11T10:06:14;11.00;99.90
21255;DHT22;10785;50.674;17.954;2022-11-11T10:09:16;11.00;99.90
21255;DHT22;10785;50.674;17.954;2022-11-11T10:12:09;11.00;99.90
21255;DHT22;10785;50.674;17.954;2022-11-11T10:15:00;10.90;99.90
21255;DHT22;10785;50.674;17.954;2022-11-11T10:18:00;10.90;99.90
21255;DHT22;10785;50.674;17.954;2022-11-11T10:20:54;11.00;99.90
21255;DHT22;10785;50.674;17.954;2022-11-11T10:23:45;10.80;99.90
21255;DHT22;10785;50.674;17.954;2022-11-11T10:26:37;10.90;99.90
21255;DHT22;10785;50.674;17.954;2022-11-11T10:29:26;11.00;99.90
21255;DHT22;10785;50.674;17.954;2022-11-11T10:32:20;10.90;99.30
21255;DHT22;10785;50.674;17.954;2022-11-11T10:35:15;10.90;99.90
21255;DHT22;10785;50.674;17.954;2022-11-11T10:38:16;11.10;99.90
21255;DHT22;10785;50.674;17.954;2022-11-11T10:41:12;11.20;99.30
21255;DHT22;10785;50.674;17.954;2022-11-11T10:44:01;11.00;99.20
21255;DHT22;10785;50.674;17.954;2022-11-11T10:46:57;11.10;99.40
21255;DHT22;10785;50.674;17.954;2022-11-11T10:49:53;11.20;99.30
21255;DHT22;10785;50.674;17.954;2022-11-11T10:52:46;11.40;99.30
21255;DHT22;10785;50.674;17.954;2022-11-11T10:55:41;11.40;98.00
21255;DHT22;10785;50.674;17.954;2022-11-11T10:58:33;11.50;98.20
21255;DHT22;10785;50.674;17.954;2022-11-11T11:01:28;11.70;98.70
21255;DHT22;10785;50.674;17.954;2022-11-11T11:04:21;12.00;97.20
21255;DHT22;10785;50.674;17.954;2022-11-11T11:07:18;12.10;96.70
21255;DHT22;10785;50.674;17.954;2022-11-11T11:10:11;12.20;95.80
21255;DHT22;10785;50.674;17.954;2022-11-11T11:13:04;12.10;95.00
21255;DHT22;10785;50.674;17.954;2022-11-11T11:15:56;12.10;95.00
21255;DHT22;10785;50.674;17.954;2022-11-11T11:19:18;12.20;94.70
21255;DHT22;10785;50.674;17.954;2022-11-11T11:22:06;12.30;94.30
21255;DHT22;10785;50.674;17.954;2022-11-11T11:25:08;12.20;95.90
21255;DHT22;10785;50.674;17.954;2022-11-11T11:28:14;12.20;95.90
21255;DHT22;10785;50.674;17.954;2022-11-11T11:31:03;12.10;96.90
21255;DHT22;10785;50.674;17.954;2022-11-11T11:33:52;12.20;96.40
21255;DHT22;10785;50.674;17.954;2022-11-11T11:36:40;12.10;97.90
21255;DHT22;10785;50.674;17.954;2022-11-11T11:39:32;12.20;97.60
21255;DHT22;10785;50.674;17.954;2022-11-11T11:42:32;12.30;97.60
21255;DHT22;10785;50.674;17.954;2022-11-11T11:45:22;12.40;97.40
21255;DHT22;10785;50.674;17.954;2022-11-11T11:48:19;12.30;96.50
21255;DHT22;10785;50.674;17.954;2022-11-11T11:51:26;12.30;98.40
21255;DHT22;10785;50.674;17.954;2022-11-11T11:54:47;12.30;97.80
21255;DHT22;10785;50.674;17.954;2022-11-11T11:57:44;12.30;98.20
21255;DHT22;10785;50.674;17.954;2022-11-11T12:00:39;12.30;98.50
21255;DHT22;10785;50.674;17.954;2022-11-11T12:07:05;12.30;98.10
21255;DHT22;10785;50.674;17.954;2022-11-11T12:10:05;12.40;98.00
21255;DHT22;10785;50.674;17.954;2022-11-11T12:13:01;12.50;98.90
21255;DHT22;10785;50.674;17.954;2022-11-11T12:15:55;12.60;98.10
21255;DHT22;10785;50.674;17.954;2022-11-11T12:19:13;12.60;97.30
21255;DHT22;10785;50.674;17.954;2022-11-11T12:22:10;12.60;97.60
21255;DHT22;10785;50.674;17.954;2022-11-11T12:25:11;12.60;96.30
21255;DHT22;10785;50.674;17.954;2022-11-11T12:28:06;12.60;97.20
21255;DHT22;10785;50.674;17.954;2022-11-11T12:31:02;12.60;96.30
21255;DHT22;10785;50.674;17.954;2022-11-11T12:34:15;12.50;95.80
21255;DHT22;10785;50.674;17.954;2022-11-11T12:37:09;12.50;96.00
21255;DHT22;10785;50.674;17.954;2022-11-11T12:40:14;12.50;96.50
21255;DHT22;10785;50.674;17.954;2022-11-11T12:43:13;12.50;96.60
21255;DHT22;10785;50.674;17.954;2022-11-11T12:46:09;12.40;96.60
21255;DHT22;10785;50.674;17.954;2022-11-11T12:49:06;12.40;97.10
21255;DHT22;10785;50.674;17.954;2022-11-11T12:52:03;12.40;97.50
21255;DHT22;10785;50.674;17.954;2022-11-11T12:55:06;12.40;97.90
21255;DHT22;10785;50.674;17.954;2022-11-11T12:58:08;12.40;98.30
21255;DHT22;10785;50.674;17.954;2022-11-11T13:01:12;12.40;98.10
21255;DHT22;10785;50.674;17.954;2022-11-11T13:04:25;12.30;97.80
21255;DHT22;10785;50.674;17.954;2022-11-11T13:07:49;12.40;97.80
21255;DHT22;10785;50.674;17.954;2022-11-11T13:10:47;12.40;97.10
21255;DHT22;10785;50.674;17.954;2022-11-11T13:13:53;12.50;96.60
21255;DHT22;10785;50.674;17.954;2022-11-11T13:16:43;12.50;95.90
21255;DHT22;10785;50.674;17.954;2022-11-11T13:19:33;12.70;96.10
21255;DHT22;10785;50.674;17.954;2022-11-11T13:22:22;12.70;95.00
21255;DHT22;10785;50.674;17.954;2022-11-11T13:25:16;12.70;95.20
21255;DHT22;10785;50.674;17.954;2022-11-11T13:28:12;12.70;94.80
21255;DHT22;10785;50.674;17.954;2022-11-11T13:31:13;12.60;94.50
21255;DHT22;10785;50.674;17.954;2022-11-11T13:34:09;12.60;94.60
21255;DHT22;10785;50.674;17.954;2022-11-11T13:36:57;12.60;94.80
21255;DHT22;10785;50.674;17.954;2022-11-11T13:39:46;12.60;94.80
21255;DHT22;10785;50.674;17.954;2022-11-11T13:42:47;12.50;95.70
21255;DHT22;10785;50.674;17.954;2022-11-11T13:45:39;12.50;95.40
21255;DHT22;10785;50.674;17.954;2022-11-11T13:48:31;12.50;96.30
21255;DHT22;10785;50.674;17.954;2022-11-11T13:51:23;12.50;96.30
21255;DHT22;10785;50.674;17.954;2022-11-11T13:54:23;12.40;96.40
21255;DHT22;10785;50.674;17.954;2022-11-11T13:57:18;12.40;96.20
21255;DHT22;10785;50.674;17.954;2022-11-11T14:00:24;12.40;95.80
21255;DHT22;10785;50.674;17.954;2022-11-11T14:03:31;12.30;96.30
21255;DHT22;10785;50.674;17.954;2022-11-11T14:09:59;12.20;96.80
21255;DHT22;10785;50.674;17.954;2022-11-11T14:12:49;12.20;96.40
21255;DHT22;10785;50.674;17.954;2022-11-11T14:15:41;12.10;96.50
21255;DHT22;10785;50.674;17.954;2022-11-11T14:18:36;12.10;96.30
21255;DHT22;10785;50.674;17.954;2022-11-11T14:21:51;12.00;96.50
21255;DHT22;10785;50.674;17.954;2022-11-11T14:24:45;11.90;96.80
21255;DHT22;10785;50.674;17.954;2022-11-11T14:27:33;11.90;97.20
21255;DHT22;10785;50.674;17.954;2022-11-11T14:30:35;11.80;97.30
21255;DHT22;10785;50.674;17.954;2022-11-11T14:33:37;11.80;97.60
21255;DHT22;10785;50.674;17.954;2022-11-11T14:36:35;11.70;97.80
21255;DHT22;10785;50.674;17.954;2022-11-11T14:39:38;11.60;98.40
21255;DHT22;10785;50.674;17.954;2022-11-11T14:42:45;11.50;98.70
21255;DHT22;10785;50.674;17.954;2022-11-11T14:46:00;11.40;99.30
21255;DHT22;10785;50.674;17.954;2022-11-11T14:48:51;11.30;99.30
21255;DHT22;10785;50.674;17.954;2022-11-11T14:54:58;11.10;99.90
21255;DHT22;10785;50.674;17.954;2022-11-11T14:57:56;11.00;99.90
21255;DHT22;10785;50.674;17.954;2022-11-11T15:00:47;11.00;99.90
21255;DHT22;10785;50.674;17.954;2022-11-11T15:03:37;11.00;99.90
21255;DHT22;10785;50.674;17.954;2022-11-11T15:06:31;11.00;99.90
21255;DHT22;10785;50.674;17.954;2022-11-11T15:09:44;10.90;99.90
21255;DHT22;10785;50.674;17.954;2022-11-11T15:12:46;10.80;99.90
21255;DHT22;10785;50.674;17.954;2022-11-11T15:15:40;10.70;99.90
21255;DHT22;10785;50.674;17.954;2022-11-11T15:18:42;10.60;99.90
21255;DHT22;10785;50.674;17.954;2022-11-11T15:21:34;10.50;99.90
21255;DHT22;10785;50.674;17.954;2022-11-11T15:24:29;10.40;99.90
21255;DHT22;10785;50.674;17.954;2022-11-11T15:27:26;10.40;99.90
21255;DHT22;10785;50.674;17.954;2022-11-11T15:30:16;10.30;99.90
21255;DHT22;10785;50.674;17.954;2022-11-11T15:33:10;10.30;99.90
21255;DHT22;10785;50.674;17.954;2022-11-11T15:36:03;10.20;99.90
21255;DHT22;10785;50.674;17.954;2022-11-11T15:38:58;10.20;99.90
21255;DHT22;10785;50.674;17.954;2022-11-11T15:41:50;10.40;99.90
21255;DHT22;10785;50.674;17.954;2022-11-11T15:44:38;10.40;99.90
21255;DHT22;10785;50.674;17.954;2022-11-11T15:47:26;10.50;99.90
21255;DHT22;10785;50.674;17.954;2022-11-11T15:50:29;10.40;99.90
21255;DHT22;10785;50.674;17.954;2022-11-11T15:53:22;10.40;99.90
21255;DHT22;10785;50.674;17.954;2022-11-11T15:56:14;10.30;99.90
21255;DHT22;10785;50.674;17.954;2022-11-11T15:59:16;10.30;99.90
21255;DHT22;10785;50.674;17.954;2022-11-11T16:02:07;10.30;99.90
21255;DHT22;10785;50.674;17.954;2022-11-11T16:05:02;10.20;99.90
21255;DHT22;10785;50.674;17.954;2022-11-11T16:07:52;10.20;99.90
21255;DHT22;10785;50.674;17.954;2022-11-11T16:10:42;10.20;99.90
21255;DHT22;10785;50.674;17.954;2022-11-11T16:13:34;10.20;99.90
21255;DHT22;10785;50.674;17.954;2022-11-11T16:16:27;10.20;99.90
21255;DHT22;10785;50.674;17.954;2022-11-11T16:19:23;10.20;99.90
21255;DHT22;10785;50.674;17.954;2022-11-11T16:22:14;10.20;99.90
21255;DHT22;10785;50.674;17.954;2022-11-11T16:25:03;10.20;99.90
21255;DHT22;10785;50.674;17.954;2022-11-11T16:27:51;10.10;99.90
21255;DHT22;10785;50.674;17.954;2022-11-11T16:30:40;10.10;99.90
21255;DHT22;10785;50.674;17.954;2022-11-11T16:33:32;10.10;99.90
21255;DHT22;10785;50.674;17.954;2022-11-11T16:36:20;10.00;99.90
21255;DHT22;10785;50.674;17.954;2022-11-11T16:39:14;10.00;99.90
21255;DHT22;10785;50.674;17.954;2022-11-11T16:42:02;10.00;99.90
21255;DHT22;10785;50.674;17.954;2022-11-11T16:44:55;9.90;99.90
21255;DHT22;10785;50.674;17.954;2022-11-11T16:47:46;9.80;99.90
21255;DHT22;10785;50.674;17.954;2022-11-11T16:50:52;9.80;99.90
21255;DHT22;10785;50.674;17.954;2022-11-11T16:53:42;9.70;99.90
21255;DHT22;10785;50.674;17.954;2022-11-11T16:56:31;9.80;99.90
21255;DHT22;10785;50.674;17.954;2022-11-11T16:59:21;9.70;99.90
21255;DHT22;10785;50.674;17.954;2022-11-11T17:02:15;9.80;99.90
21255;DHT22;10785;50.674;17.954;2022-11-11T17:05:05;9.80;99.90
21255;DHT22;10785;50.674;17.954;2022-11-11T17:07:52;9.80;99.90
21255;DHT22;10785;50.674;17.954;2022-11-11T17:10:39;9.70;99.90
21255;DHT22;10785;50.674;17.954;2022-11-11T17:13:27;9.70;99.90
21255;DHT22;10785;50.674;17.954;2022-11-11T17:16:14;9.70;99.90
21255;DHT22;10785;50.674;17.954;2022-11-11T17:19:02;9.70;99.90
21255;DHT22;10785;50.674;17.954;2022-11-11T17:21:51;9.60;99.90
21255;DHT22;10785;50.674;17.954;2022-11-11T17:24:38;9.60;99.90
21255;DHT22;10785;50.674;17.954;2022-11-11T17:27:28;9.50;99.90
21255;DHT22;10785;50.674;17.954;2022-11-11T17:30:15;9.40;99.90
21255;DHT22;10785;50.674;17.954;2022-11-11T17:33:03;9.40;99.90
21255;DHT22;10785;50.674;17.954;2022-11-11T17:35:51;9.40;99.90
21255;DHT22;10785;50.674;17.954;2022-11-11T17:38:40;9.40;99.90
21255;DHT22;10785;50.674;17.954;2022-11-11T17:41:27;9.40;99.90
21255;DHT22;10785;50.674;17.954;2022-11-11T17:44:14;9.40;99.90
21255;DHT22;10785;50.674;17.954;2022-11-11T17:47:01;9.40;99.90
21255;DHT22;10785;50.674;17.954;2022-11-11T17:49:49;9.30;99.90
21255;DHT22;10785;50.674;17.954;2022-11-11T17:52:41;9.30;99.90
21255;DHT22;10785;50.674;17.954;2022-11-11T17:55:31;9.30;99.90
21255;DHT22;10785;50.674;17.954;2022-11-11T17:58:18;9.20;99.90
21255;DHT22;10785;50.674;17.954;2022-11-11T18:01:06;9.20;99.90
21255;DHT22;10785;50.674;17.954;2022-11-11T18:03:55;9.20;99.90
21255;DHT22;10785;50.674;17.954;2022-11-11T18:06:42;9.30;99.90
21255;DHT22;10785;50.674;17.954;2022-11-11T18:09:29;9.30;99.90
21255;DHT22;10785;50.674;17.954;2022-11-11T18:12:18;9.30;99.90
21255;DHT22;10785;50.674;17.954;2022-11-11T18:15:05;9.30;99.90